sensor_id;sensor_type;location;lat;lon;timestamp;temperature;humidity
7844;DHT22;3967;48.702;9.326;2023-03-23T00:00:59;13.80;70.70
7844;DHT22;3967;48.702;9.326;2023-03-23T00:03:26;13.80;71.10
7844;DHT22;3967;48.702;9.326;2023-03-23T00:05:54;13.80;71.20
7844;DHT22;3967;48.702;9.326;2023-03-23T00:08:25;13.80;70.10
7844;DHT22;3967;48.702;9.326;2023-03-23T00:10:52;13.80;70.00
7844;DHT22;3967;48.702;9.326;2023-03-23T00:13:25;13.70;70.00
7844;DHT22;3967;48.702;9.326;2023-03-23T00:15:51;13.70;71.40
7844;DHT22;3967;48.702;9.326;2023-03-23T00:18:19;13.60;72.00
7844;DHT22;3967;48.702;9.326;2023-03-23T00:20:49;13.70;72.00
7844;DHT22;3967;48.702;9.326;2023-03-23T00:23:16;13.60;71.30
7844;DHT22;3967;48.702;9.326;2023-03-23T00:25:49;13.70;71.30
7844;DHT22;3967;48.702;9.326;2023-03-23T00:28:16;13.70;71.90
7844;DHT22;3967;48.702;9.326;2023-03-23T00:30:42;13.70;71.90
7844;DHT22;3967;48.702;9.326;2023-03-23T00:33:10;13.70;71.60
7844;DHT22;3967;48.702;9.326;2023-03-23T00:35:39;13.70;70.80
7844;DHT22;3967;48.702;9.326;2023-03-23T00:38:05;13.80;71.50
7844;DHT22;3967;48.702;9.326;2023-03-23T00:40:31;13.80;73.80
7844;DHT22;3967;48.702;9.326;2023-03-23T00:43:02;13.80;75.40
7844;DHT22;3967;48.702;9.326;2023-03-23T00:45:29;13.70;76.10
7844;DHT22;3967;48.702;9.326;2023-03-23T00:47:54;13.50;74.60
7844;DHT22;3967;48.702;9.326;2023-03-23T00:50:21;13.50;75.50
7844;DHT22;3967;48.702;9.326;2023-03-23T00:52:47;13.40;74.90
7844;DHT22;3967;48.702;9.326;2023-03-23T00:55:17;13.40;76.00
7844;DHT22;3967;48.702;9.326;2023-03-23T00:57:43;13.40;76.10
7844;DHT22;3967;48.702;9.326;2023-03-23T01:00:09;13.40;76.50
7844;DHT22;3967;48.702;9.326;2023-03-23T01:02:36;13.40;76.20
7844;DHT22;3967;48.702;9.326;2023-03-23T01:05:02;13.40;75.10
7844;DHT22;3967;48.702;9.326;2023-03-23T01:07:28;13.50;73.90
7844;DHT22;3967;48.702;9.326;2023-03-23T01:09:56;13.40;75.00
7844;DHT22;3967;48.702;9.326;2023-03-23T01:12:23;13.40;74.90
7844;DHT22;3967;48.702;9.326;2023-03-23T01:14:50;13.30;75.30
7844;DHT22;3967;48.702;9.326;2023-03-23T01:17:16;13.20;74.00
7844;DHT22;3967;48.702;9.326;2023-03-23T01:19:42;13.20;74.30
7844;DHT22;3967;48.702;9.326;2023-03-23T01:22:08;13.30;75.40
7844;DHT22;3967;48.702;9.326;2023-03-23T01:24:33;13.20;74.50
7844;DHT22;3967;48.702;9.326;2023-03-23T01:26:59;13.10;73.90
7844;DHT22;3967;48.702;9.326;2023-03-23T01:29:33;13.00;74.90
7844;DHT22;3967;48.702;9.326;2023-03-23T01:31:58;13.10;75.00
7844;DHT22;3967;48.702;9.326;2023-03-23T01:34:24;13.10;74.80
7844;DHT22;3967;48.702;9.326;2023-03-23T01:36:50;13.10;75.10
7844;DHT22;3967;48.702;9.326;2023-03-23T01:39:16;13.00;75.30
7844;DHT22;3967;48.702;9.326;2023-03-23T01:41:41;12.80;76.50
7844;DHT22;3967;48.702;9.326;2023-03-23T01:46:56;12.90;76.50
7844;DHT22;3967;48.702;9.326;2023-03-23T01:49:34;12.90;76.30
7844;DHT22;3967;48.702;9.326;2023-03-23T01:52:03;12.80;76.10
7844;DHT22;3967;48.702;9.326;2023-03-23T01:54:30;12.80;76.90
7844;DHT22;3967;48.702;9.326;2023-03-23T01:57:06;12.80;76.90
7844;DHT22;3967;48.702;9.326;2023-03-23T01:59:33;12.90;77.10
7844;DHT22;3967;48.702;9.326;2023-03-23T02:02:00;13.00;76.50
7844;DHT22;3967;48.702;9.326;2023-03-23T02:04:28;13.00;76.20
7844;DHT22;3967;48.702;9.326;2023-03-23T02:06:56;13.10;76.40
7844;DHT22;3967;48.702;9.326;2023-03-23T02:09:24;13.10;76.70
7844;DHT22;3967;48.702;9.326;2023-03-23T02:11:51;13.00;77.30
7844;DHT22;3967;48.702;9.326;2023-03-23T02:14:18;12.90;76.40
7844;DHT22;3967;48.702;9.326;2023-03-23T02:24:58;13.00;75.00
7844;DHT22;3967;48.702;9.326;2023-03-23T02:30:20;13.10;75.50
7844;DHT22;3967;48.702;9.326;2023-03-23T02:38:43;12.90;76.00
7844;DHT22;3967;48.702;9.326;2023-03-23T02:41:07;12.90;76.60
7844;DHT22;3967;48.702;9.326;2023-03-23T02:43:39;13.00;76.70
7844;DHT22;3967;48.702;9.326;2023-03-23T02:46:07;13.10;76.90
7844;DHT22;3967;48.702;9.326;2023-03-23T02:48:34;13.10;76.50
7844;DHT22;3967;48.702;9.326;2023-03-23T02:51:02;13.00;76.20
7844;DHT22;3967;48.702;9.326;2023-03-23T02:53:30;12.90;76.00
7844;DHT22;3967;48.702;9.326;2023-03-23T02:55:57;12.70;76.30
7844;DHT22;3967;48.702;9.326;2023-03-23T02:58:27;12.70;76.80
7844;DHT22;3967;48.702;9.326;2023-03-23T03:00:54;12.70;76.70
7844;DHT22;3967;48.702;9.326;2023-03-23T03:03:23;12.80;76.60
7844;DHT22;3967;48.702;9.326;2023-03-23T03:08:28;12.60;76.20
7844;DHT22;3967;48.702;9.326;2023-03-23T03:11:06;12.60;76.50
7844;DHT22;3967;48.702;9.326;2023-03-23T03:13:48;12.70;76.30
7844;DHT22;3967;48.702;9.326;2023-03-23T03:21:48;12.90;75.30
7844;DHT22;3967;48.702;9.326;2023-03-23T03:24:17;12.80;75.40
7844;DHT22;3967;48.702;9.326;2023-03-23T03:26:49;12.70;75.60
7844;DHT22;3967;48.702;9.326;2023-03-23T03:29:21;12.60;75.40
7844;DHT22;3967;48.702;9.326;2023-03-23T03:31:49;12.70;75.70
7844;DHT22;3967;48.702;9.326;2023-03-23T03:34:16;12.70;75.70
7844;DHT22;3967;48.702;9.326;2023-03-23T03:36:44;12.80;75.70
7844;DHT22;3967;48.702;9.326;2023-03-23T03:39:12;12.80;76.10
7844;DHT22;3967;48.702;9.326;2023-03-23T03:41:41;12.80;76.20
7844;DHT22;3967;48.702;9.326;2023-03-23T03:44:07;13.00;76.10
7844;DHT22;3967;48.702;9.326;2023-03-23T03:46:36;13.00;75.70
7844;DHT22;3967;48.702;9.326;2023-03-23T03:49:04;13.10;75.00
7844;DHT22;3967;48.702;9.326;2023-03-23T03:51:31;13.10;75.40
7844;DHT22;3967;48.702;9.326;2023-03-23T03:53:57;13.10;75.70
7844;DHT22;3967;48.702;9.326;2023-03-23T03:56:24;13.00;75.50
7844;DHT22;3967;48.702;9.326;2023-03-23T03:58:50;13.00;76.00
7844;DHT22;3967;48.702;9.326;2023-03-23T04:01:17;13.10;76.30
7844;DHT22;3967;48.702;9.326;2023-03-23T04:03:44;13.10;76.60
7844;DHT22;3967;48.702;9.326;2023-03-23T04:06:10;13.10;76.90
7844;DHT22;3967;48.702;9.326;2023-03-23T04:08:38;13.00;76.50
7844;DHT22;3967;48.702;9.326;2023-03-23T04:11:05;13.00;76.90
7844;DHT22;3967;48.702;9.326;2023-03-23T04:13:31;13.00;76.60
7844;DHT22;3967;48.702;9.326;2023-03-23T04:15:56;13.00;76.50
7844;DHT22;3967;48.702;9.326;2023-03-23T04:18:22;13.00;75.50
7844;DHT22;3967;48.702;9.326;2023-03-23T04:20:49;13.10;74.50
7844;DHT22;3967;48.702;9.326;2023-03-23T04:23:17;12.90;75.20
7844;DHT22;3967;48.702;9.326;2023-03-23T04:25:46;12.90;76.20
7844;DHT22;3967;48.702;9.326;2023-03-23T04:28:13;12.90;76.50
7844;DHT22;3967;48.702;9.326;2023-03-23T04:30:39;13.00;76.80
7844;DHT22;3967;48.702;9.326;2023-03-23T04:33:09;13.00;76.50
7844;DHT22;3967;48.702;9.326;2023-03-23T04:35:40;13.00;76.60
7844;DHT22;3967;48.702;9.326;2023-03-23T04:38:06;13.10;76.70
7844;DHT22;3967;48.702;9.326;2023-03-23T04:40:36;13.10;76.80
7844;DHT22;3967;48.702;9.326;2023-03-23T04:43:01;13.10;77.40
7844;DHT22;3967;48.702;9.326;2023-03-23T04:45:32;13.10;77.60
7844;DHT22;3967;48.702;9.326;2023-03-23T04:47:58;13.10;78.40
7844;DHT22;3967;48.702;9.326;2023-03-23T04:50:28;13.00;78.20
7844;DHT22;3967;48.702;9.326;2023-03-23T04:52:56;12.90;79.00
7844;DHT22;3967;48.702;9.326;2023-03-23T04:55:25;12.90;78.80
7844;DHT22;3967;48.702;9.326;2023-03-23T04:57:51;12.90;79.90
7844;DHT22;3967;48.702;9.326;2023-03-23T05:00:17;12.90;78.90
7844;DHT22;3967;48.702;9.326;2023-03-23T05:02:44;13.10;77.30
7844;DHT22;3967;48.702;9.326;2023-03-23T05:05:13;13.20;76.90
7844;DHT22;3967;48.702;9.326;2023-03-23T05:07:39;13.20;77.30
7844;DHT22;3967;48.702;9.326;2023-03-23T05:10:07;13.10;78.50
7844;DHT22;3967;48.702;9.326;2023-03-23T05:12:33;13.10;79.90
7844;DHT22;3967;48.702;9.326;2023-03-23T05:14:59;13.10;80.00
7844;DHT22;3967;48.702;9.326;2023-03-23T05:17:25;13.10;79.00
7844;DHT22;3967;48.702;9.326;2023-03-23T05:19:52;13.10;79.70
7844;DHT22;3967;48.702;9.326;2023-03-23T05:22:18;13.10;79.70
7844;DHT22;3967;48.702;9.326;2023-03-23T05:24:46;13.20;79.30
7844;DHT22;3967;48.702;9.326;2023-03-23T05:27:12;13.20;79.40
7844;DHT22;3967;48.702;9.326;2023-03-23T05:29:40;13.30;79.20
7844;DHT22;3967;48.702;9.326;2023-03-23T05:32:07;13.20;79.60
7844;DHT22;3967;48.702;9.326;2023-03-23T05:34:34;13.20;79.20
7844;DHT22;3967;48.702;9.326;2023-03-23T05:37:00;13.20;79.60
7844;DHT22;3967;48.702;9.326;2023-03-23T05:39:30;13.20;79.20
7844;DHT22;3967;48.702;9.326;2023-03-23T05:41:57;13.20;79.30
7844;DHT22;3967;48.702;9.326;2023-03-23T05:44:24;13.20;79.60
7844;DHT22;3967;48.702;9.326;2023-03-23T05:46:50;13.20;78.70
7844;DHT22;3967;48.702;9.326;2023-03-23T05:49:16;13.30;79.40
7844;DHT22;3967;48.702;9.326;2023-03-23T05:51:45;13.20;80.00
7844;DHT22;3967;48.702;9.326;2023-03-23T05:54:15;13.20;80.20
7844;DHT22;3967;48.702;9.326;2023-03-23T05:56:41;13.30;80.30
7844;DHT22;3967;48.702;9.326;2023-03-23T05:59:08;13.30;80.10
7844;DHT22;3967;48.702;9.326;2023-03-23T06:01:35;13.40;80.50
7844;DHT22;3967;48.702;9.326;2023-03-23T06:04:01;13.40;79.40
7844;DHT22;3967;48.702;9.326;2023-03-23T06:06:28;13.40;79.10
7844;DHT22;3967;48.702;9.326;2023-03-23T06:08:55;13.50;78.10
7844;DHT22;3967;48.702;9.326;2023-03-23T06:11:21;13.50;77.80
7844;DHT22;3967;48.702;9.326;2023-03-23T06:13:46;13.50;78.40
7844;DHT22;3967;48.702;9.326;2023-03-23T06:16:13;13.80;84.00
7844;DHT22;3967;48.702;9.326;2023-03-23T06:18:38;13.70;79.50
7844;DHT22;3967;48.702;9.326;2023-03-23T06:21:06;13.70;78.20
7844;DHT22;3967;48.702;9.326;2023-03-23T06:23:32;13.60;80.10
7844;DHT22;3967;48.702;9.326;2023-03-23T06:26:03;13.70;79.00
7844;DHT22;3967;48.702;9.326;2023-03-23T06:28:29;13.70;79.10
7844;DHT22;3967;48.702;9.326;2023-03-23T06:30:55;13.70;78.20
7844;DHT22;3967;48.702;9.326;2023-03-23T06:33:23;13.80;78.00
7844;DHT22;3967;48.702;9.326;2023-03-23T06:35:50;13.80;78.50
7844;DHT22;3967;48.702;9.326;2023-03-23T06:38:17;13.80;78.50
7844;DHT22;3967;48.702;9.326;2023-03-23T06:40:42;13.80;78.00
7844;DHT22;3967;48.702;9.326;2023-03-23T06:43:12;13.90;78.20
7844;DHT22;3967;48.702;9.326;2023-03-23T06:45:39;13.90;77.30
7844;DHT22;3967;48.702;9.326;2023-03-23T06:48:05;14.00;77.90
7844;DHT22;3967;48.702;9.326;2023-03-23T06:50:31;14.00;77.50
7844;DHT22;3967;48.702;9.326;2023-03-23T06:52:57;14.00;77.50
7844;DHT22;3967;48.702;9.326;2023-03-23T06:55:22;14.00;77.60
7844;DHT22;3967;48.702;9.326;2023-03-23T06:57:48;14.00;78.20
7844;DHT22;3967;48.702;9.326;2023-03-23T07:00:14;13.90;78.80
7844;DHT22;3967;48.702;9.326;2023-03-23T07:02:41;13.90;78.40
7844;DHT22;3967;48.702;9.326;2023-03-23T07:05:11;13.90;79.10
7844;DHT22;3967;48.702;9.326;2023-03-23T07:07:38;14.00;79.30
7844;DHT22;3967;48.702;9.326;2023-03-23T07:10:05;14.00;80.00
7844;DHT22;3967;48.702;9.326;2023-03-23T07:12:31;14.10;80.30
7844;DHT22;3967;48.702;9.326;2023-03-23T07:14:58;14.20;80.50
7844;DHT22;3967;48.702;9.326;2023-03-23T07:17:24;14.20;80.00
7844;DHT22;3967;48.702;9.326;2023-03-23T07:19:50;14.30;79.40
7844;DHT22;3967;48.702;9.326;2023-03-23T07:22:16;14.40;78.90
7844;DHT22;3967;48.702;9.326;2023-03-23T07:24:41;14.40;78.80
7844;DHT22;3967;48.702;9.326;2023-03-23T07:27:08;14.40;78.80
7844;DHT22;3967;48.702;9.326;2023-03-23T07:29:34;14.50;78.60
7844;DHT22;3967;48.702;9.326;2023-03-23T07:32:04;14.50;78.10
7844;DHT22;3967;48.702;9.326;2023-03-23T07:34:31;14.60;77.30
7844;DHT22;3967;48.702;9.326;2023-03-23T07:36:57;14.50;76.90
7844;DHT22;3967;48.702;9.326;2023-03-23T07:39:23;14.60;76.50
7844;DHT22;3967;48.702;9.326;2023-03-23T07:41:49;14.60;76.70
7844;DHT22;3967;48.702;9.326;2023-03-23T07:44:15;14.60;76.80
7844;DHT22;3967;48.702;9.326;2023-03-23T07:46:41;14.50;76.40
7844;DHT22;3967;48.702;9.326;2023-03-23T07:49:10;14.50;76.30
7844;DHT22;3967;48.702;9.326;2023-03-23T07:51:36;14.60;75.90
7844;DHT22;3967;48.702;9.326;2023-03-23T07:54:04;14.50;76.20
7844;DHT22;3967;48.702;9.326;2023-03-23T07:56:30;14.60;75.80
7844;DHT22;3967;48.702;9.326;2023-03-23T07:58:56;14.70;76.40
7844;DHT22;3967;48.702;9.326;2023-03-23T08:01:22;14.70;75.80
7844;DHT22;3967;48.702;9.326;2023-03-23T08:03:49;14.80;75.80
7844;DHT22;3967;48.702;9.326;2023-03-23T08:06:16;14.90;75.10
7844;DHT22;3967;48.702;9.326;2023-03-23T08:08:41;14.90;74.90
7844;DHT22;3967;48.702;9.326;2023-03-23T08:11:07;15.00;74.80
7844;DHT22;3967;48.702;9.326;2023-03-23T08:13:33;15.10;74.60
7844;DHT22;3967;48.702;9.326;2023-03-23T08:16:00;15.20;74.60
7844;DHT22;3967;48.702;9.326;2023-03-23T08:18:30;15.20;74.00
7844;DHT22;3967;48.702;9.326;2023-03-23T08:20:56;15.30;73.90
7844;DHT22;3967;48.702;9.326;2023-03-23T08:23:21;15.30;74.40
7844;DHT22;3967;48.702;9.326;2023-03-23T08:25:48;15.40;74.80
7844;DHT22;3967;48.702;9.326;2023-03-23T08:28:13;15.50;73.70
7844;DHT22;3967;48.702;9.326;2023-03-23T08:30:39;15.60;74.00
7844;DHT22;3967;48.702;9.326;2023-03-23T08:33:06;15.70;74.00
7844;DHT22;3967;48.702;9.326;2023-03-23T08:35:32;15.70;73.50
7844;DHT22;3967;48.702;9.326;2023-03-23T08:37:58;15.80;73.40
7844;DHT22;3967;48.702;9.326;2023-03-23T08:40:24;15.90;73.90
7844;DHT22;3967;48.702;9.326;2023-03-23T08:42:51;15.90;73.50
7844;DHT22;3967;48.702;9.326;2023-03-23T08:45:20;15.90;74.20
7844;DHT22;3967;48.702;9.326;2023-03-23T08:47:46;15.90;73.90
7844;DHT22;3967;48.702;9.326;2023-03-23T08:50:19;15.90;73.40
7844;DHT22;3967;48.702;9.326;2023-03-23T08:52:45;15.90;74.40
7844;DHT22;3967;48.702;9.326;2023-03-23T08:55:11;16.00;74.90
7844;DHT22;3967;48.702;9.326;2023-03-23T08:57:37;16.00;74.40
7844;DHT22;3967;48.702;9.326;2023-03-23T09:00:06;16.00;74.80
7844;DHT22;3967;48.702;9.326;2023-03-23T09:02:48;16.00;75.00
7844;DHT22;3967;48.702;9.326;2023-03-23T09:05:19;15.90;75.40
7844;DHT22;3967;48.702;9.326;2023-03-23T09:07:49;15.80;75.20
7844;DHT22;3967;48.702;9.326;2023-03-23T09:10:16;15.80;75.50
7844;DHT22;3967;48.702;9.326;2023-03-23T09:12:43;15.80;75.70
7844;DHT22;3967;48.702;9.326;2023-03-23T09:15:11;15.80;75.70
7844;DHT22;3967;48.702;9.326;2023-03-23T09:17:42;15.80;75.70
7844;DHT22;3967;48.702;9.326;2023-03-23T09:20:09;15.80;76.00
7844;DHT22;3967;48.702;9.326;2023-03-23T09:22:44;15.80;76.30
7844;DHT22;3967;48.702;9.326;2023-03-23T09:25:12;15.90;76.70
7844;DHT22;3967;48.702;9.326;2023-03-23T09:27:40;15.90;76.60
7844;DHT22;3967;48.702;9.326;2023-03-23T09:30:11;16.00;77.00
7844;DHT22;3967;48.702;9.326;2023-03-23T09:32:38;16.10;77.10
7844;DHT22;3967;48.702;9.326;2023-03-23T09:35:07;16.00;76.90
7844;DHT22;3967;48.702;9.326;2023-03-23T09:37:34;16.00;76.90
7844;DHT22;3967;48.702;9.326;2023-03-23T09:40:02;16.10;76.90
7844;DHT22;3967;48.702;9.326;2023-03-23T09:42:45;16.10;77.30
7844;DHT22;3967;48.702;9.326;2023-03-23T09:45:41;16.20;77.00
7844;DHT22;3967;48.702;9.326;2023-03-23T09:50:53;16.30;77.50
7844;DHT22;3967;48.702;9.326;2023-03-23T09:53:33;16.40;77.50
7844;DHT22;3967;48.702;9.326;2023-03-23T09:56:01;16.30;76.40
7844;DHT22;3967;48.702;9.326;2023-03-23T09:58:35;16.40;76.80
7844;DHT22;3967;48.702;9.326;2023-03-23T10:01:10;16.40;77.00
7844;DHT22;3967;48.702;9.326;2023-03-23T10:03:41;16.40;77.60
7844;DHT22;3967;48.702;9.326;2023-03-23T10:06:12;16.50;77.60
7844;DHT22;3967;48.702;9.326;2023-03-23T10:08:53;16.40;76.90
7844;DHT22;3967;48.702;9.326;2023-03-23T10:19:46;16.30;76.70
7844;DHT22;3967;48.702;9.326;2023-03-23T10:22:15;16.50;77.20
7844;DHT22;3967;48.702;9.326;2023-03-23T10:24:51;16.30;76.70
7844;DHT22;3967;48.702;9.326;2023-03-23T10:27:41;16.30;77.00
7844;DHT22;3967;48.702;9.326;2023-03-23T10:32:53;16.20;77.60
7844;DHT22;3967;48.702;9.326;2023-03-23T10:35:33;16.40;77.60
7844;DHT22;3967;48.702;9.326;2023-03-23T10:38:13;16.50;77.20
7844;DHT22;3967;48.702;9.326;2023-03-23T10:40:49;16.50;77.00
7844;DHT22;3967;48.702;9.326;2023-03-23T10:43:17;16.50;76.60
7844;DHT22;3967;48.702;9.326;2023-03-23T10:45:44;16.50;77.00
7844;DHT22;3967;48.702;9.326;2023-03-23T10:48:22;16.60;76.90
7844;DHT22;3967;48.702;9.326;2023-03-23T10:50:51;16.60;76.60
7844;DHT22;3967;48.702;9.326;2023-03-23T10:53:26;16.60;76.10
7844;DHT22;3967;48.702;9.326;2023-03-23T10:55:55;16.70;76.20
7844;DHT22;3967;48.702;9.326;2023-03-23T10:58:29;16.70;76.50
7844;DHT22;3967;48.702;9.326;2023-03-23T11:00:56;16.70;76.40
7844;DHT22;3967;48.702;9.326;2023-03-23T11:06:05;16.90;76.20
7844;DHT22;3967;48.702;9.326;2023-03-23T11:08:35;17.00;75.80
7844;DHT22;3967;48.702;9.326;2023-03-23T11:13:43;17.10;76.00
7844;DHT22;3967;48.702;9.326;2023-03-23T11:16:10;17.20;75.10
7844;DHT22;3967;48.702;9.326;2023-03-23T11:18:41;17.20;75.70
7844;DHT22;3967;48.702;9.326;2023-03-23T11:21:12;17.40;75.50
7844;DHT22;3967;48.702;9.326;2023-03-23T11:23:41;17.50;75.50
7844;DHT22;3967;48.702;9.326;2023-03-23T11:26:24;17.50;75.60
7844;DHT22;3967;48.702;9.326;2023-03-23T11:31:34;17.40;75.00
7844;DHT22;3967;48.702;9.326;2023-03-23T11:34:17;17.40;74.20
7844;DHT22;3967;48.702;9.326;2023-03-23T11:37:01;17.30;73.80
7844;DHT22;3967;48.702;9.326;2023-03-23T11:39:34;17.20;74.50
7844;DHT22;3967;48.702;9.326;2023-03-23T11:42:11;17.20;75.20
7844;DHT22;3967;48.702;9.326;2023-03-23T11:44:42;17.20;75.10
7844;DHT22;3967;48.702;9.326;2023-03-23T11:47:43;17.30;75.00
7844;DHT22;3967;48.702;9.326;2023-03-23T11:50:31;17.40;75.20
7844;DHT22;3967;48.702;9.326;2023-03-23T11:53:09;17.40;74.70
7844;DHT22;3967;48.702;9.326;2023-03-23T11:58:19;17.70;75.10
7844;DHT22;3967;48.702;9.326;2023-03-23T12:04:05;17.70;73.80
7844;DHT22;3967;48.702;9.326;2023-03-23T12:12:18;17.80;73.40
7844;DHT22;3967;48.702;9.326;2023-03-23T12:17:19;17.90;72.00
7844;DHT22;3967;48.702;9.326;2023-03-23T12:44:46;18.00;69.60
7844;DHT22;3967;48.702;9.326;2023-03-23T12:48:18;17.90;69.20
7844;DHT22;3967;48.702;9.326;2023-03-23T12:50:35;17.80;69.10
7844;DHT22;3967;48.702;9.326;2023-03-23T12:53:23;17.80;69.80
7844;DHT22;3967;48.702;9.326;2023-03-23T12:58:45;17.90;69.40
7844;DHT22;3967;48.702;9.326;2023-03-23T13:01:24;18.00;69.30
7844;DHT22;3967;48.702;9.326;2023-03-23T13:03:59;17.90;69.10
7844;DHT22;3967;48.702;9.326;2023-03-23T13:06:44;18.00;69.40
7844;DHT22;3967;48.702;9.326;2023-03-23T13:09:28;18.20;69.40
7844;DHT22;3967;48.702;9.326;2023-03-23T13:11:55;18.40;69.00
7844;DHT22;3967;48.702;9.326;2023-03-23T13:14:41;18.30;68.70
7844;DHT22;3967;48.702;9.326;2023-03-23T13:23:09;18.30;69.50
7844;DHT22;3967;48.702;9.326;2023-03-23T13:28:30;18.40;69.10
7844;DHT22;3967;48.702;9.326;2023-03-23T13:31:11;18.40;69.10
7844;DHT22;3967;48.702;9.326;2023-03-23T13:33:38;18.50;68.70
7844;DHT22;3967;48.702;9.326;2023-03-23T13:36:09;18.40;68.40
7844;DHT22;3967;48.702;9.326;2023-03-23T13:38:36;18.30;68.50
7844;DHT22;3967;48.702;9.326;2023-03-23T13:41:11;18.40;69.00
7844;DHT22;3967;48.702;9.326;2023-03-23T13:43:39;18.50;68.90
7844;DHT22;3967;48.702;9.326;2023-03-23T13:51:34;18.40;68.30
7844;DHT22;3967;48.702;9.326;2023-03-23T13:56:40;18.20;68.50
7844;DHT22;3967;48.702;9.326;2023-03-23T13:59:12;18.40;68.70
7844;DHT22;3967;48.702;9.326;2023-03-23T14:01:39;18.50;69.30
7844;DHT22;3967;48.702;9.326;2023-03-23T14:04:14;18.50;67.70
7844;DHT22;3967;48.702;9.326;2023-03-23T14:06:41;18.40;67.60
7844;DHT22;3967;48.702;9.326;2023-03-23T14:09:18;18.50;67.10
7844;DHT22;3967;48.702;9.326;2023-03-23T14:11:56;18.50;67.40
7844;DHT22;3967;48.702;9.326;2023-03-23T14:14:32;18.60;66.30
7844;DHT22;3967;48.702;9.326;2023-03-23T14:17:18;18.40;65.60
7844;DHT22;3967;48.702;9.326;2023-03-23T14:19:50;18.40;66.20
7844;DHT22;3967;48.702;9.326;2023-03-23T14:22:27;18.40;65.60
7844;DHT22;3967;48.702;9.326;2023-03-23T14:25:02;18.20;65.10
7844;DHT22;3967;48.702;9.326;2023-03-23T14:27:34;18.20;66.20
7844;DHT22;3967;48.702;9.326;2023-03-23T14:30:03;18.20;65.70
7844;DHT22;3967;48.702;9.326;2023-03-23T14:32:30;18.10;64.70
7844;DHT22;3967;48.702;9.326;2023-03-23T14:34:58;18.10;64.60
7844;DHT22;3967;48.702;9.326;2023-03-23T14:37:25;18.10;65.20
7844;DHT22;3967;48.702;9.326;2023-03-23T14:39:55;18.10;65.50
7844;DHT22;3967;48.702;9.326;2023-03-23T14:42:30;17.80;64.60
7844;DHT22;3967;48.702;9.326;2023-03-23T14:44:57;17.80;65.20
7844;DHT22;3967;48.702;9.326;2023-03-23T14:49:53;17.90;65.00
7844;DHT22;3967;48.702;9.326;2023-03-23T14:52:23;17.80;65.20
7844;DHT22;3967;48.702;9.326;2023-03-23T14:54:49;18.00;65.10
7844;DHT22;3967;48.702;9.326;2023-03-23T14:57:26;17.90;65.00
7844;DHT22;3967;48.702;9.326;2023-03-23T14:59:53;18.00;64.60
7844;DHT22;3967;48.702;9.326;2023-03-23T15:02:27;18.20;64.60
7844;DHT22;3967;48.702;9.326;2023-03-23T15:05:16;18.20;63.90
7844;DHT22;3967;48.702;9.326;2023-03-23T15:07:47;18.20;64.50
7844;DHT22;3967;48.702;9.326;2023-03-23T15:10:18;18.30;64.30
7844;DHT22;3967;48.702;9.326;2023-03-23T15:12:46;18.10;64.00
7844;DHT22;3967;48.702;9.326;2023-03-23T15:17:48;18.00;64.10
7844;DHT22;3967;48.702;9.326;2023-03-23T15:20:43;18.10;63.60
7844;DHT22;3967;48.702;9.326;2023-03-23T15:23:16;18.20;63.30
7844;DHT22;3967;48.702;9.326;2023-03-23T15:25:48;18.20;63.60
7844;DHT22;3967;48.702;9.326;2023-03-23T15:28:19;18.10;63.60
7844;DHT22;3967;48.702;9.326;2023-03-23T15:30:51;18.00;63.50
7844;DHT22;3967;48.702;9.326;2023-03-23T15:33:18;18.00;63.70
7844;DHT22;3967;48.702;9.326;2023-03-23T15:35:50;17.90;63.90
7844;DHT22;3967;48.702;9.326;2023-03-23T15:38:32;18.10;63.90
7844;DHT22;3967;48.702;9.326;2023-03-23T15:41:03;18.10;64.00
7844;DHT22;3967;48.702;9.326;2023-03-23T15:43:58;18.10;63.60
7844;DHT22;3967;48.702;9.326;2023-03-23T15:46:34;18.20;64.10
7844;DHT22;3967;48.702;9.326;2023-03-23T15:51:27;18.20;64.20
7844;DHT22;3967;48.702;9.326;2023-03-23T15:53:55;18.00;64.20
7844;DHT22;3967;48.702;9.326;2023-03-23T15:56:21;18.00;64.20
7844;DHT22;3967;48.702;9.326;2023-03-23T15:58:48;17.80;64.80
7844;DHT22;3967;48.702;9.326;2023-03-23T16:01:21;17.70;64.00
7844;DHT22;3967;48.702;9.326;2023-03-23T16:03:59;17.80;64.20
7844;DHT22;3967;48.702;9.326;2023-03-23T16:06:30;17.60;64.30
7844;DHT22;3967;48.702;9.326;2023-03-23T16:08:57;17.70;64.40
7844;DHT22;3967;48.702;9.326;2023-03-23T16:11:26;17.60;64.60
7844;DHT22;3967;48.702;9.326;2023-03-23T16:13:53;17.70;64.20
7844;DHT22;3967;48.702;9.326;2023-03-23T16:16:24;17.50;64.50
7844;DHT22;3967;48.702;9.326;2023-03-23T16:18:53;17.60;65.30
7844;DHT22;3967;48.702;9.326;2023-03-23T16:21:20;17.60;64.90
7844;DHT22;3967;48.702;9.326;2023-03-23T16:23:47;17.60;64.80
7844;DHT22;3967;48.702;9.326;2023-03-23T16:26:15;17.50;65.00
7844;DHT22;3967;48.702;9.326;2023-03-23T16:28:42;17.60;65.20
7844;DHT22;3967;48.702;9.326;2023-03-23T16:31:09;17.60;65.40
7844;DHT22;3967;48.702;9.326;2023-03-23T16:33:36;17.50;65.10
7844;DHT22;3967;48.702;9.326;2023-03-23T16:36:03;17.40;65.30
7844;DHT22;3967;48.702;9.326;2023-03-23T16:38:30;17.40;65.70
7844;DHT22;3967;48.702;9.326;2023-03-23T16:40:57;17.30;66.10
7844;DHT22;3967;48.702;9.326;2023-03-23T16:43:24;17.40;65.90
7844;DHT22;3967;48.702;9.326;2023-03-23T16:45:54;17.30;65.80
7844;DHT22;3967;48.702;9.326;2023-03-23T16:48:22;17.40;66.00
7844;DHT22;3967;48.702;9.326;2023-03-23T16:50:50;17.50;65.70
7844;DHT22;3967;48.702;9.326;2023-03-23T16:53:17;17.50;65.70
7844;DHT22;3967;48.702;9.326;2023-03-23T16:55:44;17.30;66.20
7844;DHT22;3967;48.702;9.326;2023-03-23T16:58:15;17.30;66.30
7844;DHT22;3967;48.702;9.326;2023-03-23T17:00:46;17.20;66.60
7844;DHT22;3967;48.702;9.326;2023-03-23T17:03:13;17.30;66.60
7844;DHT22;3967;48.702;9.326;2023-03-23T17:05:42;17.30;66.40
7844;DHT22;3967;48.702;9.326;2023-03-23T17:08:10;17.40;66.50
7844;DHT22;3967;48.702;9.326;2023-03-23T17:10:38;17.50;66.20
7844;DHT22;3967;48.702;9.326;2023-03-23T17:13:06;17.40;66.50
7844;DHT22;3967;48.702;9.326;2023-03-23T17:15:39;17.60;66.60
7844;DHT22;3967;48.702;9.326;2023-03-23T17:18:06;17.50;66.20
7844;DHT22;3967;48.702;9.326;2023-03-23T17:20:34;17.50;66.60
7844;DHT22;3967;48.702;9.326;2023-03-23T17:23:02;17.50;66.30
7844;DHT22;3967;48.702;9.326;2023-03-23T17:25:29;17.60;66.20
7844;DHT22;3967;48.702;9.326;2023-03-23T17:27:57;17.40;66.10
7844;DHT22;3967;48.702;9.326;2023-03-23T17:30:32;17.50;66.80
7844;DHT22;3967;48.702;9.326;2023-03-23T17:33:02;17.50;67.00
7844;DHT22;3967;48.702;9.326;2023-03-23T17:35:29;17.50;67.10
7844;DHT22;3967;48.702;9.326;2023-03-23T17:37:56;17.30;67.20
7844;DHT22;3967;48.702;9.326;2023-03-23T17:40:23;17.40;67.40
7844;DHT22;3967;48.702;9.326;2023-03-23T17:42:50;17.40;67.80
7844;DHT22;3967;48.702;9.326;2023-03-23T17:45:17;17.40;67.70
7844;DHT22;3967;48.702;9.326;2023-03-23T17:47:44;17.40;67.40
7844;DHT22;3967;48.702;9.326;2023-03-23T17:50:11;17.40;67.40
7844;DHT22;3967;48.702;9.326;2023-03-23T17:52:39;17.40;67.40
7844;DHT22;3967;48.702;9.326;2023-03-23T17:55:07;17.20;67.60
7844;DHT22;3967;48.702;9.326;2023-03-23T17:57:34;17.10;67.70
7844;DHT22;3967;48.702;9.326;2023-03-23T18:00:03;17.10;67.80
7844;DHT22;3967;48.702;9.326;2023-03-23T18:02:33;17.00;68.30
7844;DHT22;3967;48.702;9.326;2023-03-23T18:05:00;16.90;68.60
7844;DHT22;3967;48.702;9.326;2023-03-23T18:07:27;16.80;68.90
7844;DHT22;3967;48.702;9.326;2023-03-23T18:09:58;16.70;69.20
7844;DHT22;3967;48.702;9.326;2023-03-23T18:12:25;16.80;69.40